sensor_id;sensor_type;location;lat;lon;timestamp;pressure;altitude;pressure_sealevel;temperature;humidity
11343;BME280;5726;42.160;24.746;2023-07-29T00:02:13;99241.31;;;25.44;41.71
11343;BME280;5726;42.160;24.746;2023-07-29T00:04:38;99238.50;;;24.88;43.09
11343;BME280;5726;42.160;24.746;2023-07-29T00:07:04;99237.31;;;24.86;43.35
11343;BME280;5726;42.160;24.746;2023-07-29T00:09:29;99227.53;;;24.99;43.74
11343;BME280;5726;42.160;24.746;2023-07-29T00:11:55;99226.03;;;25.15;43.37
11343;BME280;5726;42.160;24.746;2023-07-29T00:14:20;99222.13;;;25.16;43.63
11343;BME280;5726;42.160;24.746;2023-07-29T00:16:46;99220.16;;;25.27;43.49
11343;BME280;5726;42.160;24.746;2023-07-29T00:19:11;99220.94;;;25.41;42.98
11343;BME280;5726;42.160;24.746;2023-07-29T00:21:36;99225.66;;;25.68;42.64
11343;BME280;5726;42.160;24.746;2023-07-29T00:24:02;99226.41;;;25.41;43.17
11343;BME280;5726;42.160;24.746;2023-07-29T00:26:28;99228.41;;;25.23;43.66
11343;BME280;5726;42.160;24.746;2023-07-29T00:28:57;99227.59;;;25.16;44.10
11343;BME280;5726;42.160;24.746;2023-07-29T00:31:23;99227.50;;;24.78;45.22
11343;BME280;5726;42.160;24.746;2023-07-29T00:33:48;99227.50;;;24.81;45.33
11343;BME280;5726;42.160;24.746;2023-07-29T00:36:14;99239.31;;;24.92;45.28
11343;BME280;5726;42.160;24.746;2023-07-29T00:38:39;99242.13;;;25.13;44.77
11343;BME280;5726;42.160;24.746;2023-07-29T00:41:05;99242.47;;;25.01;45.11
11343;BME280;5726;42.160;24.746;2023-07-29T00:43:30;99235.81;;;25.12;45.06
11343;BME280;5726;42.160;24.746;2023-07-29T00:45:56;99239.38;;;25.13;45.21
11343;BME280;5726;42.160;24.746;2023-07-29T00:48:23;99235.84;;;25.19;45.45
11343;BME280;5726;42.160;24.746;2023-07-29T00:50:49;99231.53;;;25.49;44.84
11343;BME280;5726;42.160;24.746;2023-07-29T00:53:15;99231.53;;;25.29;45.26
11343;BME280;5726;42.160;24.746;2023-07-29T00:55:41;99230.72;;;25.04;46.28
11343;BME280;5726;42.160;24.746;2023-07-29T00:58:07;99229.16;;;25.03;46.62
11343;BME280;5726;42.160;24.746;2023-07-29T01:00:32;99224.44;;;25.14;45.86
11343;BME280;5726;42.160;24.746;2023-07-29T01:02:58;99217.03;;;25.14;46.40
11343;BME280;5726;42.160;24.746;2023-07-29T01:05:27;99222.00;;;24.81;47.29
11343;BME280;5726;42.160;24.746;2023-07-29T01:08:05;99215.38;;;24.89;47.27
11343;BME280;5726;42.160;24.746;2023-07-29T01:16:24;99224.47;;;25.10;46.26
11343;BME280;5726;42.160;24.746;2023-07-29T01:18:52;99223.63;;;24.96;46.74
11343;BME280;5726;42.160;24.746;2023-07-29T01:21:19;99222.91;;;25.13;46.38
11343;BME280;5726;42.160;24.746;2023-07-29T01:23:46;99229.19;;;25.31;45.84
11343;BME280;5726;42.160;24.746;2023-07-29T01:26:11;99227.59;;;25.30;45.61
11343;BME280;5726;42.160;24.746;2023-07-29T01:28:37;99226.81;;;25.33;45.66
11343;BME280;5726;42.160;24.746;2023-07-29T01:31:33;99224.47;;;25.42;45.61
11343;BME280;5726;42.160;24.746;2023-07-29T01:34:08;99221.34;;;25.19;45.76
11343;BME280;5726;42.160;24.746;2023-07-29T01:36:37;99228.31;;;24.85;46.63
11343;BME280;5726;42.160;24.746;2023-07-29T01:39:05;99221.13;;;24.43;47.93
11343;BME280;5726;42.160;24.746;2023-07-29T01:41:33;99226.63;;;24.46;47.90
11343;BME280;5726;42.160;24.746;2023-07-29T01:43:59;99228.94;;;24.44;47.96
11343;BME280;5726;42.160;24.746;2023-07-29T01:46:25;99226.28;;;24.58;48.06
11343;BME280;5726;42.160;24.746;2023-07-29T01:48:50;99231.66;;;24.34;48.74
11343;BME280;5726;42.160;24.746;2023-07-29T01:51:16;99241.38;;;24.28;48.90
11343;BME280;5726;42.160;24.746;2023-07-29T01:53:41;99239.09;;;24.37;49.06
11343;BME280;5726;42.160;24.746;2023-07-29T01:56:07;99243.56;;;23.98;50.41
11343;BME280;5726;42.160;24.746;2023-07-29T01:58:32;99240.81;;;23.98;50.46
11343;BME280;5726;42.160;24.746;2023-07-29T02:00:57;99239.66;;;23.96;50.75
11343;BME280;5726;42.160;24.746;2023-07-29T02:03:23;99239.72;;;24.13;50.38
11343;BME280;5726;42.160;24.746;2023-07-29T02:05:48;99242.16;;;24.25;49.85
11343;BME280;5726;42.160;24.746;2023-07-29T02:08:14;99248.00;;;24.20;50.04
11343;BME280;5726;42.160;24.746;2023-07-29T02:10:39;99247.66;;;24.32;49.67
11343;BME280;5726;42.160;24.746;2023-07-29T02:13:04;99253.25;;;24.46;49.77
11343;BME280;5726;42.160;24.746;2023-07-29T02:15:30;99259.53;;;24.50;49.81
11343;BME280;5726;42.160;24.746;2023-07-29T02:17:55;99263.09;;;24.53;49.73
11343;BME280;5726;42.160;24.746;2023-07-29T02:20:21;99265.72;;;24.36;50.49
11343;BME280;5726;42.160;24.746;2023-07-29T02:22:46;99263.03;;;24.50;49.46
11343;BME280;5726;42.160;24.746;2023-07-29T02:25:13;99265.91;;;24.03;51.01
11343;BME280;5726;42.160;24.746;2023-07-29T02:27:39;99257.69;;;24.00;51.38
11343;BME280;5726;42.160;24.746;2023-07-29T02:30:05;99257.75;;;24.10;51.36
11343;BME280;5726;42.160;24.746;2023-07-29T02:32:31;99253.09;;;24.21;50.66
11343;BME280;5726;42.160;24.746;2023-07-29T02:34:56;99245.44;;;24.54;50.54
11343;BME280;5726;42.160;24.746;2023-07-29T02:37:21;99241.94;;;24.57;50.23
11343;BME280;5726;42.160;24.746;2023-07-29T02:39:47;99250.16;;;24.51;50.49
11343;BME280;5726;42.160;24.746;2023-07-29T02:42:12;99262.91;;;24.26;51.29
11343;BME280;5726;42.160;24.746;2023-07-29T02:44:39;99264.13;;;24.32;51.61
11343;BME280;5726;42.160;24.746;2023-07-29T02:47:05;99256.94;;;24.10;52.59
11343;BME280;5726;42.160;24.746;2023-07-29T02:49:30;99260.81;;;24.02;52.96
11343;BME280;5726;42.160;24.746;2023-07-29T02:51:56;99267.97;;;24.20;52.54
11343;BME280;5726;42.160;24.746;2023-07-29T02:54:21;99265.59;;;24.15;52.33
11343;BME280;5726;42.160;24.746;2023-07-29T02:56:47;99269.78;;;23.96;53.06
11343;BME280;5726;42.160;24.746;2023-07-29T02:59:12;99260.81;;;23.99;53.17
11343;BME280;5726;42.160;24.746;2023-07-29T03:01:37;99264.78;;;24.11;52.51
11343;BME280;5726;42.160;24.746;2023-07-29T03:04:03;99258.72;;;24.46;51.32
11343;BME280;5726;42.160;24.746;2023-07-29T03:06:28;99262.91;;;24.22;51.91
11343;BME280;5726;42.160;24.746;2023-07-29T03:08:54;99272.81;;;24.41;51.20
11343;BME280;5726;42.160;24.746;2023-07-29T03:11:19;99277.25;;;24.02;52.36
11343;BME280;5726;42.160;24.746;2023-07-29T03:13:45;99272.56;;;24.02;52.44
11343;BME280;5726;42.160;24.746;2023-07-29T03:16:15;99276.41;;;23.91;52.51
11343;BME280;5726;42.160;24.746;2023-07-29T03:18:42;99279.56;;;23.47;53.45
11343;BME280;5726;42.160;24.746;2023-07-29T03:21:08;99267.88;;;23.13;54.97
11343;BME280;5726;42.160;24.746;2023-07-29T03:23:34;99271.19;;;23.29;54.65
11343;BME280;5726;42.160;24.746;2023-07-29T03:26:00;99284.59;;;23.45;54.44
11343;BME280;5726;42.160;24.746;2023-07-29T03:28:32;99287.09;;;23.60;53.58
11343;BME280;5726;42.160;24.746;2023-07-29T03:30:58;99272.94;;;23.08;55.09
11343;BME280;5726;42.160;24.746;2023-07-29T03:33:25;99284.09;;;23.72;53.58
11343;BME280;5726;42.160;24.746;2023-07-29T03:35:51;99290.13;;;24.55;51.34
11343;BME280;5726;42.160;24.746;2023-07-29T03:38:17;99284.84;;;25.21;49.79
11343;BME280;5726;42.160;24.746;2023-07-29T03:40:42;99290.41;;;25.73;48.31
11343;BME280;5726;42.160;24.746;2023-07-29T03:43:08;99290.38;;;25.94;47.23
11343;BME280;5726;42.160;24.746;2023-07-29T03:45:35;99293.06;;;26.39;46.25
11343;BME280;5726;42.160;24.746;2023-07-29T03:48:01;99296.09;;;26.68;45.78
11343;BME280;5726;42.160;24.746;2023-07-29T03:50:27;99286.16;;;27.02;44.60
11343;BME280;5726;42.160;24.746;2023-07-29T03:52:53;99297.31;;;27.39;44.26
11343;BME280;5726;42.160;24.746;2023-07-29T03:55:18;99298.16;;;27.83;43.03
11343;BME280;5726;42.160;24.746;2023-07-29T03:57:44;99301.34;;;27.81;42.81
11343;BME280;5726;42.160;24.746;2023-07-29T04:00:09;99301.69;;;27.87;43.17
11343;BME280;5726;42.160;24.746;2023-07-29T04:02:35;99307.84;;;28.41;42.25
11343;BME280;5726;42.160;24.746;2023-07-29T04:05:05;99305.91;;;28.75;41.00
11343;BME280;5726;42.160;24.746;2023-07-29T04:07:34;99302.41;;;29.00;40.61
11343;BME280;5726;42.160;24.746;2023-07-29T04:09:59;99312.72;;;28.63;40.58
11343;BME280;5726;42.160;24.746;2023-07-29T04:12:26;99316.25;;;27.87;42.85
11343;BME280;5726;42.160;24.746;2023-07-29T04:14:51;99315.69;;;28.09;42.84
11343;BME280;5726;42.160;24.746;2023-07-29T04:17:17;99321.69;;;28.74;41.43
11343;BME280;5726;42.160;24.746;2023-07-29T04:19:42;99317.09;;;27.81;43.20
11343;BME280;5726;42.160;24.746;2023-07-29T04:22:08;99321.63;;;28.01;43.06
11343;BME280;5726;42.160;24.746;2023-07-29T04:24:33;99326.63;;;28.53;41.57
11343;BME280;5726;42.160;24.746;2023-07-29T04:26:58;99321.44;;;28.95;40.76
11343;BME280;5726;42.160;24.746;2023-07-29T04:29:24;99320.91;;;28.74;40.84
11343;BME280;5726;42.160;24.746;2023-07-29T04:31:50;99322.22;;;28.26;41.18
11343;BME280;5726;42.160;24.746;2023-07-29T04:34:16;99330.97;;;28.87;40.57
11343;BME280;5726;42.160;24.746;2023-07-29T04:36:42;99333.72;;;28.54;40.78
11343;BME280;5726;42.160;24.746;2023-07-29T04:39:07;99328.28;;;27.56;42.77
11343;BME280;5726;42.160;24.746;2023-07-29T04:41:33;99334.94;;;28.13;41.69
11343;BME280;5726;42.160;24.746;2023-07-29T04:43:58;99326.53;;;28.67;40.09
11343;BME280;5726;42.160;24.746;2023-07-29T04:46:24;99327.38;;;29.20;38.43
11343;BME280;5726;42.160;24.746;2023-07-29T04:48:49;99321.28;;;29.61;37.98
11343;BME280;5726;42.160;24.746;2023-07-29T04:51:14;99320.25;;;30.01;36.98
11343;BME280;5726;42.160;24.746;2023-07-29T04:53:40;99325.94;;;30.13;37.12
11343;BME280;5726;42.160;24.746;2023-07-29T04:56:05;99326.13;;;30.26;36.61
11343;BME280;5726;42.160;24.746;2023-07-29T04:58:31;99323.22;;;30.33;36.29
11343;BME280;5726;42.160;24.746;2023-07-29T05:00:59;99329.03;;;30.61;35.71
11343;BME280;5726;42.160;24.746;2023-07-29T05:03:25;99327.88;;;30.78;35.72
11343;BME280;5726;42.160;24.746;2023-07-29T05:05:51;99328.69;;;31.17;35.03
11343;BME280;5726;42.160;24.746;2023-07-29T05:08:18;99330.22;;;31.18;34.66
11343;BME280;5726;42.160;24.746;2023-07-29T05:10:44;99334.56;;;31.19;35.04
11343;BME280;5726;42.160;24.746;2023-07-29T05:13:09;99335.09;;;30.75;35.51
11343;BME280;5726;42.160;24.746;2023-07-29T05:15:34;99335.34;;;30.61;36.76
11343;BME280;5726;42.160;24.746;2023-07-29T05:18:00;99343.00;;;30.73;36.27
11343;BME280;5726;42.160;24.746;2023-07-29T05:20:25;99344.19;;;30.95;35.75
11343;BME280;5726;42.160;24.746;2023-07-29T05:22:51;99339.47;;;31.11;34.72
11343;BME280;5726;42.160;24.746;2023-07-29T05:25:16;99339.34;;;30.80;35.05
11343;BME280;5726;42.160;24.746;2023-07-29T05:27:41;99340.53;;;30.79;35.22
11343;BME280;5726;42.160;24.746;2023-07-29T05:30:07;99342.25;;;30.73;35.18
11343;BME280;5726;42.160;24.746;2023-07-29T05:32:33;99345.16;;;30.85;35.51
11343;BME280;5726;42.160;24.746;2023-07-29T05:34:58;99348.50;;;30.77;35.12
11343;BME280;5726;42.160;24.746;2023-07-29T05:37:24;99347.34;;;30.32;36.78
11343;BME280;5726;42.160;24.746;2023-07-29T05:39:49;99351.50;;;30.43;36.21
11343;BME280;5726;42.160;24.746;2023-07-29T05:42:14;99350.81;;;30.40;37.06
11343;BME280;5726;42.160;24.746;2023-07-29T05:44:40;99359.19;;;30.33;37.11
11343;BME280;5726;42.160;24.746;2023-07-29T05:47:05;99362.41;;;29.86;37.72
11343;BME280;5726;42.160;24.746;2023-07-29T05:49:31;99367.06;;;29.62;38.30
11343;BME280;5726;42.160;24.746;2023-07-29T05:51:56;99364.34;;;29.33;38.86
11343;BME280;5726;42.160;24.746;2023-07-29T05:54:22;99364.09;;;28.91;40.49
11343;BME280;5726;42.160;24.746;2023-07-29T05:56:47;99351.81;;;28.58;40.88
11343;BME280;5726;42.160;24.746;2023-07-29T05:59:13;99344.06;;;28.46;41.81
11343;BME280;5726;42.160;24.746;2023-07-29T06:01:38;99350.19;;;28.97;40.75
11343;BME280;5726;42.160;24.746;2023-07-29T06:04:04;99350.25;;;29.24;39.80
11343;BME280;5726;42.160;24.746;2023-07-29T06:06:29;99350.56;;;29.59;38.66
11343;BME280;5726;42.160;24.746;2023-07-29T06:08:54;99343.09;;;29.82;37.96
11343;BME280;5726;42.160;24.746;2023-07-29T06:11:20;99341.97;;;29.80;39.00
11343;BME280;5726;42.160;24.746;2023-07-29T06:13:47;99350.44;;;30.15;38.03
11343;BME280;5726;42.160;24.746;2023-07-29T06:16:12;99350.22;;;30.48;36.98
11343;BME280;5726;42.160;24.746;2023-07-29T06:18:37;99346.50;;;30.77;35.95
11343;BME280;5726;42.160;24.746;2023-07-29T06:21:03;99354.38;;;30.59;37.08
11343;BME280;5726;42.160;24.746;2023-07-29T06:23:32;99339.97;;;30.68;36.13
11343;BME280;5726;42.160;24.746;2023-07-29T06:25:58;99350.00;;;30.81;36.46
11343;BME280;5726;42.160;24.746;2023-07-29T06:28:26;99352.19;;;31.09;35.96
11343;BME280;5726;42.160;24.746;2023-07-29T06:30:51;99349.28;;;31.16;34.67
11343;BME280;5726;42.160;24.746;2023-07-29T06:33:16;99344.69;;;31.44;34.43
11343;BME280;5726;42.160;24.746;2023-07-29T06:35:42;99344.56;;;31.32;35.39
11343;BME280;5726;42.160;24.746;2023-07-29T06:38:07;99340.81;;;31.42;34.46
11343;BME280;5726;42.160;24.746;2023-07-29T06:40:33;99340.50;;;31.72;34.10
11343;BME280;5726;42.160;24.746;2023-07-29T06:42:58;99335.75;;;32.04;33.60
11343;BME280;5726;42.160;24.746;2023-07-29T06:45:23;99336.59;;;31.85;33.07
11343;BME280;5726;42.160;24.746;2023-07-29T06:47:49;99337.94;;;31.45;34.38
11343;BME280;5726;42.160;24.746;2023-07-29T06:50:14;99341.69;;;31.55;34.75
11343;BME280;5726;42.160;24.746;2023-07-29T06:52:39;99340.94;;;32.02;33.29
11343;BME280;5726;42.160;24.746;2023-07-29T06:55:06;99343.41;;;32.00;33.84
11343;BME280;5726;42.160;24.746;2023-07-29T06:57:31;99342.81;;;31.89;34.11
11343;BME280;5726;42.160;24.746;2023-07-29T06:59:57;99340.41;;;31.91;33.59
11343;BME280;5726;42.160;24.746;2023-07-29T07:02:23;99334.53;;;31.73;34.42
11343;BME280;5726;42.160;24.746;2023-07-29T07:04:48;99336.16;;;31.71;34.62
11343;BME280;5726;42.160;24.746;2023-07-29T07:07:14;99339.72;;;31.87;33.79
11343;BME280;5726;42.160;24.746;2023-07-29T07:09:40;99336.06;;;31.74;33.61
11343;BME280;5726;42.160;24.746;2023-07-29T07:12:06;99329.66;;;31.77;34.13
11343;BME280;5726;42.160;24.746;2023-07-29T07:14:31;99330.19;;;32.04;34.12
11343;BME280;5726;42.160;24.746;2023-07-29T07:16:57;99332.09;;;32.23;33.41
11343;BME280;5726;42.160;24.746;2023-07-29T07:19:22;99322.50;;;32.39;32.76
11343;BME280;5726;42.160;24.746;2023-07-29T07:21:47;99328.66;;;32.75;31.96
11343;BME280;5726;42.160;24.746;2023-07-29T07:24:13;99324.78;;;32.73;32.05
11343;BME280;5726;42.160;24.746;2023-07-29T07:26:38;99313.09;;;32.65;31.84
11343;BME280;5726;42.160;24.746;2023-07-29T07:29:04;99309.28;;;32.87;31.57
11343;BME280;5726;42.160;24.746;2023-07-29T07:31:33;99318.22;;;32.95;31.66
11343;BME280;5726;42.160;24.746;2023-07-29T07:33:58;99302.31;;;33.08;30.74
11343;BME280;5726;42.160;24.746;2023-07-29T07:36:24;99307.88;;;32.67;31.41
11343;BME280;5726;42.160;24.746;2023-07-29T07:38:49;99303.63;;;32.63;31.24
11343;BME280;5726;42.160;24.746;2023-07-29T07:41:15;99305.56;;;32.78;31.76
11343;BME280;5726;42.160;24.746;2023-07-29T07:43:41;99298.53;;;32.74;31.44
11343;BME280;5726;42.160;24.746;2023-07-29T07:48:51;99299.84;;;32.57;32.57
11343;BME280;5726;42.160;24.746;2023-07-29T07:51:16;99298.19;;;32.59;31.80
11343;BME280;5726;42.160;24.746;2023-07-29T07:53:42;99299.00;;;32.72;31.33
11343;BME280;5726;42.160;24.746;2023-07-29T07:56:07;99290.19;;;33.02;31.36
11343;BME280;5726;42.160;24.746;2023-07-29T07:58:33;99294.41;;;33.06;31.06
11343;BME280;5726;42.160;24.746;2023-07-29T08:01:05;99290.78;;;33.22;31.46
11343;BME280;5726;42.160;24.746;2023-07-29T08:03:32;99277.19;;;33.73;31.22
11343;BME280;5726;42.160;24.746;2023-07-29T08:05:57;99276.13;;;33.34;30.87
11343;BME280;5726;42.160;24.746;2023-07-29T08:08:23;99271.00;;;33.32;30.72
11343;BME280;5726;42.160;24.746;2023-07-29T08:10:48;99276.22;;;33.55;30.51
11343;BME280;5726;42.160;24.746;2023-07-29T08:13:13;99272.84;;;33.84;30.51
11343;BME280;5726;42.160;24.746;2023-07-29T08:15:39;99267.81;;;34.04;30.97
11343;BME280;5726;42.160;24.746;2023-07-29T08:18:06;99262.66;;;34.15;29.72
11343;BME280;5726;42.160;24.746;2023-07-29T08:20:31;99264.84;;;34.20;29.29
11343;BME280;5726;42.160;24.746;2023-07-29T08:22:58;99261.84;;;34.15;29.88
11343;BME280;5726;42.160;24.746;2023-07-29T08:25:23;99252.88;;;34.11;29.38
11343;BME280;5726;42.160;24.746;2023-07-29T08:27:49;99258.28;;;33.93;29.85
11343;BME280;5726;42.160;24.746;2023-07-29T08:30:14;99262.59;;;33.94;30.64
11343;BME280;5726;42.160;24.746;2023-07-29T08:32:41;99256.59;;;33.83;29.63
11343;BME280;5726;42.160;24.746;2023-07-29T08:35:07;99243.94;;;34.16;29.96
11343;BME280;5726;42.160;24.746;2023-07-29T08:37:32;99251.22;;;34.34;28.70
11343;BME280;5726;42.160;24.746;2023-07-29T08:39:58;99247.72;;;34.43;28.42
11343;BME280;5726;42.160;24.746;2023-07-29T08:42:29;99237.75;;;34.54;28.36
11343;BME280;5726;42.160;24.746;2023-07-29T08:44:56;99240.09;;;34.56;28.62
11343;BME280;5726;42.160;24.746;2023-07-29T08:47:24;99234.66;;;34.52;29.56
11343;BME280;5726;42.160;24.746;2023-07-29T08:49:50;99231.53;;;34.50;29.44
11343;BME280;5726;42.160;24.746;2023-07-29T08:52:18;99226.09;;;34.26;29.35
11343;BME280;5726;42.160;24.746;2023-07-29T08:54:44;99222.31;;;34.20;29.17
11343;BME280;5726;42.160;24.746;2023-07-29T08:57:10;99218.28;;;34.21;29.56
11343;BME280;5726;42.160;24.746;2023-07-29T08:59:35;99228.53;;;34.24;28.92
11343;BME280;5726;42.160;24.746;2023-07-29T09:02:01;99222.88;;;33.81;29.88
11343;BME280;5726;42.160;24.746;2023-07-29T09:04:26;99226.50;;;34.03;29.32
11343;BME280;5726;42.160;24.746;2023-07-29T09:06:55;99223.22;;;34.17;29.29
11343;BME280;5726;42.160;24.746;2023-07-29T09:09:21;99218.88;;;34.16;28.81
11343;BME280;5726;42.160;24.746;2023-07-29T09:11:48;99218.81;;;34.28;29.16
11343;BME280;5726;42.160;24.746;2023-07-29T09:14:13;99226.72;;;34.30;28.99
11343;BME280;5726;42.160;24.746;2023-07-29T09:16:39;99218.81;;;34.28;28.83
11343;BME280;5726;42.160;24.746;2023-07-29T09:19:05;99209.56;;;34.10;28.11
11343;BME280;5726;42.160;24.746;2023-07-29T09:21:31;99213.25;;;34.07;28.68
11343;BME280;5726;42.160;24.746;2023-07-29T09:23:57;99206.53;;;34.17;28.44
11343;BME280;5726;42.160;24.746;2023-07-29T09:26:28;99204.97;;;34.16;28.74
11343;BME280;5726;42.160;24.746;2023-07-29T09:28:55;99200.16;;;34.16;28.29
11343;BME280;5726;42.160;24.746;2023-07-29T09:31:25;99194.59;;;34.16;28.24
11343;BME280;5726;42.160;24.746;2023-07-29T09:33:59;99190.97;;;34.07;27.91
11343;BME280;5726;42.160;24.746;2023-07-29T09:36:25;99196.44;;;34.32;26.79
11343;BME280;5726;42.160;24.746;2023-07-29T09:38:54;99187.09;;;34.26;26.80
11343;BME280;5726;42.160;24.746;2023-07-29T09:41:23;99180.03;;;34.12;27.13
11343;BME280;5726;42.160;24.746;2023-07-29T09:43:55;99182.75;;;34.03;26.24
11343;BME280;5726;42.160;24.746;2023-07-29T09:46:23;99179.75;;;33.98;25.79
11343;BME280;5726;42.160;24.746;2023-07-29T09:48:49;99171.72;;;34.00;24.71
11343;BME280;5726;42.160;24.746;2023-07-29T09:51:17;99167.63;;;33.58;25.37
11343;BME280;5726;42.160;24.746;2023-07-29T09:53:46;99173.78;;;33.53;25.40
11343;BME280;5726;42.160;24.746;2023-07-29T09:56:12;99173.19;;;33.58;24.77
11343;BME280;5726;42.160;24.746;2023-07-29T09:58:37;99176.06;;;33.67;25.11
11343;BME280;5726;42.160;24.746;2023-07-29T10:01:06;99171.31;;;33.55;26.09
11343;BME280;5726;42.160;24.746;2023-07-29T10:03:33;99164.28;;;33.63;26.58
11343;BME280;5726;42.160;24.746;2023-07-29T10:06:02;99156.19;;;33.56;26.01
11343;BME280;5726;42.160;24.746;2023-07-29T10:08:29;99163.72;;;33.68;26.32
11343;BME280;5726;42.160;24.746;2023-07-29T10:10:59;99167.06;;;33.63;26.63
11343;BME280;5726;42.160;24.746;2023-07-29T10:13:25;99164.94;;;33.67;26.39
11343;BME280;5726;42.160;24.746;2023-07-29T10:15:53;99167.22;;;33.93;26.42
11343;BME280;5726;42.160;24.746;2023-07-29T10:18:19;99158.31;;;33.86;26.67
11343;BME280;5726;42.160;24.746;2023-07-29T10:20:47;99157.56;;;33.73;26.60
11343;BME280;5726;42.160;24.746;2023-07-29T10:23:15;99152.00;;;33.73;26.30
11343;BME280;5726;42.160;24.746;2023-07-29T10:25:47;99160.03;;;33.71;25.65
11343;BME280;5726;42.160;24.746;2023-07-29T10:28:15;99151.09;;;33.76;25.79
11343;BME280;5726;42.160;24.746;2023-07-29T10:30:41;99142.66;;;33.67;26.11
11343;BME280;5726;42.160;24.746;2023-07-29T10:33:06;99144.84;;;33.51;25.03
11343;BME280;5726;42.160;24.746;2023-07-29T10:35:33;99146.63;;;33.45;25.57
11343;BME280;5726;42.160;24.746;2023-07-29T10:37:59;99143.66;;;33.27;25.46
11343;BME280;5726;42.160;24.746;2023-07-29T10:40:25;99133.28;;;33.40;25.79
11343;BME280;5726;42.160;24.746;2023-07-29T10:43:11;99135.97;;;33.43;24.80
11343;BME280;5726;42.160;24.746;2023-07-29T10:45:38;99130.03;;;33.54;24.38
11343;BME280;5726;42.160;24.746;2023-07-29T10:48:40;99120.41;;;33.34;25.08
11343;BME280;5726;42.160;24.746;2023-07-29T10:51:34;99118.97;;;33.29;25.04
11343;BME280;5726;42.160;24.746;2023-07-29T10:54:13;99121.91;;;33.59;24.39
11343;BME280;5726;42.160;24.746;2023-07-29T10:56:44;99120.78;;;33.57;23.92
11343;BME280;5726;42.160;24.746;2023-07-29T11:01:39;99102.19;;;33.66;24.66
11343;BME280;5726;42.160;24.746;2023-07-29T11:12:41;99089.19;;;33.17;24.77
11343;BME280;5726;42.160;24.746;2023-07-29T11:15:22;99098.09;;;33.58;24.35
11343;BME280;5726;42.160;24.746;2023-07-29T11:17:56;99093.56;;;33.52;24.58
11343;BME280;5726;42.160;24.746;2023-07-29T11:20:26;99094.00;;;33.84;24.33
11343;BME280;5726;42.160;24.746;2023-07-29T11:22:53;99081.72;;;34.15;23.61
11343;BME280;5726;42.160;24.746;2023-07-29T11:25:21;99073.75;;;34.05;23.73
11343;BME280;5726;42.160;24.746;2023-07-29T11:27:47;99080.63;;;33.79;24.24
11343;BME280;5726;42.160;24.746;2023-07-29T11:30:14;99080.84;;;33.63;24.30
11343;BME280;5726;42.160;24.746;2023-07-29T11:32:40;99070.75;;;33.78;23.83
11343;BME280;5726;42.160;24.746;2023-07-29T11:35:10;99072.00;;;33.98;23.45
11343;BME280;5726;42.160;24.746;2023-07-29T11:37:37;99076.78;;;33.98;23.71
11343;BME280;5726;42.160;24.746;2023-07-29T11:40:04;99075.47;;;34.11;23.74
11343;BME280;5726;42.160;24.746;2023-07-29T11:42:32;99073.16;;;34.10;24.06
11343;BME280;5726;42.160;24.746;2023-07-29T11:44:59;99071.97;;;34.20;23.56
11343;BME280;5726;42.160;24.746;2023-07-29T11:47:25;99065.66;;;34.28;23.97
11343;BME280;5726;42.160;24.746;2023-07-29T11:49:51;99056.66;;;34.15;24.15
11343;BME280;5726;42.160;24.746;2023-07-29T11:52:18;99052.66;;;33.95;24.61
11343;BME280;5726;42.160;24.746;2023-07-29T11:54:46;99050.22;;;34.27;25.08
11343;BME280;5726;42.160;24.746;2023-07-29T11:57:12;99052.41;;;34.32;24.68
11343;BME280;5726;42.160;24.746;2023-07-29T11:59:39;99052.09;;;34.30;25.43
11343;BME280;5726;42.160;24.746;2023-07-29T12:02:08;99047.53;;;34.24;25.57
11343;BME280;5726;42.160;24.746;2023-07-29T12:04:35;99053.34;;;34.08;25.03
11343;BME280;5726;42.160;24.746;2023-07-29T12:07:01;99045.78;;;34.08;25.47
11343;BME280;5726;42.160;24.746;2023-07-29T12:09:27;99036.91;;;33.80;25.25
11343;BME280;5726;42.160;24.746;2023-07-29T12:11:54;99034.59;;;33.78;25.61
11343;BME280;5726;42.160;24.746;2023-07-29T12:14:19;99035.34;;;34.00;24.77
11343;BME280;5726;42.160;24.746;2023-07-29T12:16:48;99042.59;;;34.19;25.47
11343;BME280;5726;42.160;24.746;2023-07-29T12:19:14;99032.91;;;34.02;24.68
11343;BME280;5726;42.160;24.746;2023-07-29T12:21:41;99043.25;;;33.80;25.54
11343;BME280;5726;42.160;24.746;2023-07-29T12:24:07;99027.19;;;33.63;24.49
11343;BME280;5726;42.160;24.746;2023-07-29T12:26:33;99018.53;;;33.82;23.90
11343;BME280;5726;42.160;24.746;2023-07-29T12:28:59;99023.19;;;33.85;25.12
11343;BME280;5726;42.160;24.746;2023-07-29T12:31:31;99014.41;;;33.65;23.94
11343;BME280;5726;42.160;24.746;2023-07-29T12:33:57;99013.63;;;33.65;24.47
11343;BME280;5726;42.160;24.746;2023-07-29T12:36:39;99019.56;;;33.76;24.53
11343;BME280;5726;42.160;24.746;2023-07-29T12:39:05;99015.88;;;34.00;24.35
11343;BME280;5726;42.160;24.746;2023-07-29T12:41:30;99007.53;;;34.00;23.70
11343;BME280;5726;42.160;24.746;2023-07-29T12:43:56;98993.25;;;33.68;22.34
11343;BME280;5726;42.160;24.746;2023-07-29T12:46:21;98998.69;;;33.71;23.13
11343;BME280;5726;42.160;24.746;2023-07-29T12:48:47;98990.44;;;33.89;23.32
11343;BME280;5726;42.160;24.746;2023-07-29T12:51:12;98997.69;;;34.08;23.48
11343;BME280;5726;42.160;24.746;2023-07-29T12:53:37;98998.72;;;34.01;22.99
11343;BME280;5726;42.160;24.746;2023-07-29T12:56:03;98993.69;;;34.18;22.41
11343;BME280;5726;42.160;24.746;2023-07-29T12:58:28;98998.22;;;34.24;23.77
11343;BME280;5726;42.160;24.746;2023-07-29T13:00:54;98989.97;;;34.12;22.53
11343;BME280;5726;42.160;24.746;2023-07-29T13:03:19;98997.97;;;34.01;22.19
11343;BME280;5726;42.160;24.746;2023-07-29T13:05:45;99011.22;;;33.97;23.45
11343;BME280;5726;42.160;24.746;2023-07-29T13:08:10;99009.88;;;33.80;23.33
11343;BME280;5726;42.160;24.746;2023-07-29T13:10:36;99009.81;;;33.50;23.55
11343;BME280;5726;42.160;24.746;2023-07-29T13:13:01;99000.44;;;33.56;23.48
11343;BME280;5726;42.160;24.746;2023-07-29T13:15:26;99004.50;;;33.64;23.51
11343;BME280;5726;42.160;24.746;2023-07-29T13:17:52;99008.03;;;33.86;22.52